Time;durP1;ratioP1;P1;durP2;ratioP2;P2;SDS_P1;SDS_P2;PMS_P1;PMS_P2;Temp;Humidity;BMP_temperature;BMP_pressure;BME280_temperature;BME280_humidity;BME280_pressure;Samples;Min_cycle;Max_cycle;Signal;HPM_P1;HPM_P2
2022/05/31 00:41:28;;;;;;;2.17;0.40;;;14.10;60.60;;;;;;4978946;28;20041;-71
2022/05/31 00:44:07;;;;;;;4.05;0.55;;;14.10;60.10;;;;;;4957423;28;20469;-72
2022/05/31 00:47:14;;;;;;;1.85;0.55;;;14.20;59.70;;;;;;4939229;28;20110;-72
2022/05/31 00:49:49;;;;;;;0.45;0.30;;;14.10;60.20;;;;;;4954579;28;20077;-72
2022/05/31 00:52:21;;;;;;;1.50;0.70;;;14.20;59.70;;;;;;4963873;28;20542;-71
2022/05/31 00:55:01;;;;;;;0.40;0.40;;;14.10;60.40;;;;;;4970480;28;20035;-70
2022/05/31 00:57:29;;;;;;;1.00;0.50;;;14.20;60.80;;;;;;4970931;28;20034;-70
2022/05/31 01:00:00;;;;;;;1.23;0.40;;;14.30;60.40;;;;;;4971908;28;20034;-70
2022/05/31 01:02:27;;;;;;;3.38;0.47;;;14.30;59.90;;;;;;4954951;28;20121;-69
2022/05/31 01:05:02;;;;;;;0.60;0.47;;;14.30;60.50;;;;;;4954195;28;20031;-76
2022/05/31 01:07:29;;;;;;;2.33;0.47;;;14.30;60.20;;;;;;4942779;28;20056;-70
2022/05/31 01:09:56;;;;;;;0.75;0.30;;;14.40;59.70;;;;;;4971788;28;20051;-67
2022/05/31 01:12:23;;;;;;;0.40;0.40;;;14.50;59.60;;;;;;4954348;28;20054;-73
2022/05/31 01:14:51;;;;;;;2.25;0.43;;;14.40;60.30;;;;;;4938744;28;20165;-68
2022/05/31 01:17:22;;;;;;;1.77;0.70;;;14.40;60.30;;;;;;4971844;28;20026;-70
2022/05/31 01:19:56;;;;;;;3.95;0.50;;;14.50;59.80;;;;;;4954361;28;20035;-70
2022/05/31 01:22:42;;;;;;;0.40;0.30;;;14.40;60.80;;;;;;4955197;28;20049;-68
2022/05/31 01:25:37;;;;;;;0.20;0.20;;;14.40;61.20;;;;;;4970830;28;20035;-71
2022/05/31 01:28:10;;;;;;;1.45;0.38;;;14.40;61.00;;;;;;4947714;28;20050;-71
2022/05/31 01:30:43;;;;;;;0.93;0.60;;;14.50;61.10;;;;;;4964039;28;20030;-71
2022/05/31 01:33:50;;;;;;;1.52;1.30;;;14.40;61.50;;;;;;4956031;28;20030;-71
2022/05/31 01:36:23;;;;;;;0.32;0.30;;;14.50;61.10;;;;;;4973426;28;20089;-71
2022/05/31 01:39:05;;;;;;;0.95;0.43;;;14.70;60.00;;;;;;4961790;28;20109;-71
2022/05/31 01:41:56;;;;;;;0.20;0.20;;;14.70;58.70;;;;;;4997996;28;20034;-71
2022/05/31 01:44:24;;;;;;;0.60;0.60;;;14.70;59.20;;;;;;4998142;28;20037;-71
2022/05/31 01:46:53;;;;;;;1.67;0.50;;;14.80;57.90;;;;;;4996592;28;20034;-71
2022/05/31 01:49:20;;;;;;;0.45;0.40;;;14.80;58.10;;;;;;4996644;28;20034;-69
2022/05/31 01:51:47;;;;;;;0.65;0.22;;;14.80;58.20;;;;;;5014270;28;20026;-71
2022/05/31 01:54:15;;;;;;;1.73;0.50;;;14.80;57.30;;;;;;5014611;28;20133;-70
2022/05/31 01:56:43;;;;;;;1.00;0.90;;;14.90;56.50;;;;;;4996555;28;20049;-71
2022/05/31 01:59:10;;;;;;;0.32;0.30;;;14.80;57.00;;;;;;4964177;28;20088;-72
2022/05/31 02:01:38;;;;;;;0.22;0.20;;;14.90;57.50;;;;;;4996424;28;20055;-71
2022/05/31 02:04:05;;;;;;;0.40;0.20;;;14.80;58.30;;;;;;4996360;28;20025;-71
2022/05/31 02:06:33;;;;;;;2.70;0.40;;;14.80;58.10;;;;;;5014107;28;20396;-70
2022/05/31 02:09:00;;;;;;;3.40;0.30;;;14.80;57.90;;;;;;4996296;28;20101;-71
2022/05/31 02:11:28;;;;;;;2.63;0.28;;;14.90;57.20;;;;;;4996648;28;20429;-71
2022/05/31 02:13:58;;;;;;;3.80;0.63;;;15.00;55.80;;;;;;4995968;28;20113;-70
2022/05/31 02:16:26;;;;;;;0.40;0.30;;;15.00;55.60;;;;;;4980842;28;20052;-70
2022/05/31 02:21:38;;;;;;;0.20;0.20;;;15.20;54.60;;;;;;4998793;28;20435;-72
2022/05/31 02:24:08;;;;;;;2.67;0.60;;;15.10;54.40;;;;;;4979978;28;20030;-70
2022/05/31 02:26:35;;;;;;;0.20;0.20;;;15.10;55.10;;;;;;5013610;28;20061;-70
2022/05/31 02:29:02;;;;;;;2.50;0.30;;;15.10;56.50;;;;;;5013117;28;20034;-70
2022/05/31 02:31:32;;;;;;;0.80;0.20;;;15.10;55.90;;;;;;5013998;28;20042;-71
2022/05/31 02:34:00;;;;;;;4.18;0.45;;;15.10;56.40;;;;;;5013258;28;20435;-70
2022/05/31 02:36:27;;;;;;;1.50;0.77;;;15.00;57.50;;;;;;4995946;28;20157;-70
2022/05/31 02:38:55;;;;;;;0.90;0.28;;;14.90;57.50;;;;;;4995906;28;20140;-71
2022/05/31 02:41:22;;;;;;;1.60;0.40;;;15.00;56.70;;;;;;5013034;28;20026;-70
2022/05/31 02:43:50;;;;;;;5.25;0.40;;;15.00;56.20;;;;;;4995289;28;20030;-71
2022/05/31 02:46:17;;;;;;;1.60;0.75;;;15.00;55.60;;;;;;4995774;28;20038;-70
2022/05/31 02:48:44;;;;;;;4.68;0.50;;;15.00;55.10;;;;;;4995918;28;20400;-71
2022/05/31 02:51:11;;;;;;;1.90;0.38;;;15.10;55.60;;;;;;5013355;28;20387;-71
2022/05/31 02:53:38;;;;;;;1.67;0.40;;;15.10;55.10;;;;;;4995630;28;20125;-71
2022/05/31 02:56:06;;;;;;;3.35;0.55;;;15.10;53.70;;;;;;5013081;28;20476;-70
2022/05/31 02:58:33;;;;;;;0.70;0.38;;;15.00;53.60;;;;;;5012941;28;20548;-72
2022/05/31 03:01:00;;;;;;;3.38;0.43;;;15.00;52.90;;;;;;4979184;28;20507;-70
2022/05/31 03:03:28;;;;;;;0.25;0.20;;;15.10;53.10;;;;;;5012679;28;20064;-71
2022/05/31 03:05:55;;;;;;;0.25;0.25;;;15.00;53.70;;;;;;5012779;28;20138;-71
2022/05/31 03:08:23;;;;;;;0.95;0.30;;;15.00;54.60;;;;;;5012809;28;20036;-71
2022/05/31 03:10:52;;;;;;;2.85;0.30;;;15.00;54.40;;;;;;5012731;28;20072;-71
2022/05/31 03:13:22;;;;;;;0.20;0.20;;;14.90;55.10;;;;;;4995514;28;20036;-70
2022/05/31 03:15:50;;;;;;;1.73;0.50;;;14.90;56.20;;;;;;4979201;28;20022;-71
2022/05/31 03:18:19;;;;;;;3.63;0.50;;;14.90;57.00;;;;;;4995417;28;20029;-71
2022/05/31 03:20:50;;;;;;;0.30;0.30;;;14.90;55.40;;;;;;4995277;28;20026;-71
2022/05/31 03:23:22;;;;;;;1.88;0.40;;;14.80;56.30;;;;;;5012566;28;20165;-71
2022/05/31 03:25:50;;;;;;;1.25;0.30;;;14.80;56.00;;;;;;4994946;28;20049;-71
2022/05/31 03:28:17;;;;;;;2.92;0.93;;;14.90;56.40;;;;;;4963435;28;20389;-71
2022/05/31 03:30:44;;;;;;;1.10;0.38;;;14.80;56.10;;;;;;4995028;28;20031;-71
2022/05/31 03:33:11;;;;;;;1.67;0.40;;;14.80;56.60;;;;;;4995093;28;20053;-69
2022/05/31 03:35:39;;;;;;;11.13;0.85;;;14.80;55.70;;;;;;4994256;28;20030;-71
2022/05/31 03:38:06;;;;;;;0.38;0.35;;;14.80;55.90;;;;;;4978333;28;20034;-71
2022/05/31 03:43:19;;;;;;;0.80;0.30;;;14.70;56.30;;;;;;4997006;28;20045;-71
2022/05/31 03:45:46;;;;;;;1.85;0.50;;;14.70;57.50;;;;;;4994521;28;20036;-71
2022/05/31 03:48:13;;;;;;;0.40;0.40;;;14.70;57.80;;;;;;5011710;28;20033;-71
2022/05/31 03:50:40;;;;;;;0.85;0.47;;;14.80;56.90;;;;;;5012169;28;20041;-71
2022/05/31 03:53:08;;;;;;;0.85;0.38;;;14.70;56.50;;;;;;4994580;28;20117;-70
2022/05/31 03:55:39;;;;;;;1.20;0.25;;;14.70;56.40;;;;;;4993889;28;20125;-72
2022/05/31 03:58:07;;;;;;;0.28;0.28;;;14.80;55.10;;;;;;4994574;28;20030;-71
2022/05/31 04:00:34;;;;;;;1.50;0.40;;;14.70;55.60;;;;;;4977941;28;20076;-71
2022/05/31 04:03:01;;;;;;;1.05;0.43;;;14.70;56.30;;;;;;5012294;28;20092;-71
2022/05/31 04:05:28;;;;;;;1.65;0.47;;;14.60;55.90;;;;;;4994636;28;20033;-71
2022/05/31 04:07:56;;;;;;;0.93;0.30;;;14.60;56.50;;;;;;5011936;28;20121;-71
2022/05/31 04:10:23;;;;;;;0.30;0.25;;;14.50;57.10;;;;;;4994407;28;20036;-71
2022/05/31 04:12:50;;;;;;;0.90;0.40;;;14.50;57.80;;;;;;5011921;28;20026;-71
2022/05/31 04:15:18;;;;;;;1.15;0.50;;;14.50;58.00;;;;;;5011522;28;20050;-70
2022/05/31 04:17:45;;;;;;;0.60;0.60;;;14.50;57.60;;;;;;5011976;28;20095;-71
2022/05/31 04:20:12;;;;;;;0.50;0.38;;;14.50;56.10;;;;;;4993999;28;20038;-71
2022/05/31 04:22:39;;;;;;;2.05;0.40;;;14.60;55.30;;;;;;4994436;28;20361;-71
2022/05/31 04:25:07;;;;;;;0.52;0.35;;;14.50;56.40;;;;;;5011696;28;20478;-71
2022/05/31 04:27:34;;;;;;;0.85;0.57;;;14.50;57.00;;;;;;5011088;28;20044;-69
2022/05/31 04:30:01;;;;;;;1.42;0.70;;;14.50;57.30;;;;;;4994033;28;20026;-71
2022/05/31 04:32:28;;;;;;;0.75;0.68;;;14.50;57.50;;;;;;4994047;28;20033;-71
2022/05/31 04:34:56;;;;;;;5.55;0.55;;;14.50;57.70;;;;;;4994147;28;20029;-70
2022/05/31 04:37:23;;;;;;;2.35;1.00;;;14.40;57.80;;;;;;5011963;28;20155;-70
2022/05/31 04:39:50;;;;;;;2.38;0.50;;;14.40;55.40;;;;;;4993806;28;20061;-71
2022/05/31 04:42:17;;;;;;;1.63;0.60;;;14.40;55.00;;;;;;5011328;28;20037;-70
2022/05/31 04:44:44;;;;;;;1.15;0.85;;;14.30;55.20;;;;;;4993554;28;20073;-71
2022/05/31 04:47:12;;;;;;;0.70;0.52;;;14.30;55.90;;;;;;5011338;28;20086;-71
2022/05/31 04:49:39;;;;;;;0.82;0.57;;;14.20;56.20;;;;;;5011510;28;20026;-71
2022/05/31 04:52:06;;;;;;;2.05;0.70;;;14.20;56.60;;;;;;5011543;28;20109;-70
2022/05/31 04:54:33;;;;;;;0.45;0.40;;;14.20;57.00;;;;;;5011342;28;20034;-71
2022/05/31 04:57:00;;;;;;;0.57;0.40;;;14.20;56.80;;;;;;5010263;28;20065;-70
2022/05/31 04:59:27;;;;;;;1.65;0.60;;;14.20;57.50;;;;;;5011307;28;20038;-71
2022/05/31 05:01:55;;;;;;;1.05;0.52;;;14.20;57.90;;;;;;5011446;28;20026;-71
2022/05/31 05:04:22;;;;;;;0.40;0.40;;;14.20;57.50;;;;;;5011488;28;20393;-69
2022/05/31 05:06:49;;;;;;;4.18;0.85;;;14.20;56.90;;;;;;4990336;28;20598;-68
2022/05/31 05:09:17;;;;;;;1.42;0.50;;;14.20;56.60;;;;;;5002450;28;20141;-68
2022/05/31 05:11:46;;;;;;;1.85;0.68;;;14.20;56.90;;;;;;5011914;28;20054;-68
2022/05/31 05:14:13;;;;;;;0.47;0.30;;;14.30;56.00;;;;;;5001456;28;20244;-69
2022/05/31 05:16:41;;;;;;;1.48;0.82;;;14.30;55.30;;;;;;5012226;28;20038;-69
2022/05/31 05:19:08;;;;;;;2.08;0.80;;;14.30;55.60;;;;;;5011873;28;20033;-69
2022/05/31 05:21:35;;;;;;;1.90;1.00;;;14.30;55.60;;;;;;4978643;28;20096;-69
2022/05/31 05:24:02;;;;;;;0.80;0.68;;;14.30;56.10;;;;;;4994396;28;20066;-68
2022/05/31 05:26:30;;;;;;;1.42;0.70;;;14.30;56.20;;;;;;5003896;28;20470;-69
2022/05/31 05:31:42;;;;;;;2.47;0.77;;;14.20;56.30;;;;;;5009969;28;20064;-69
2022/05/31 05:34:09;;;;;;;2.20;0.75;;;14.20;56.50;;;;;;5011895;28;20405;-67
2022/05/31 05:36:36;;;;;;;0.38;0.38;;;14.20;57.20;;;;;;4994316;28;20110;-69
2022/05/31 05:39:10;;;;;;;1.42;0.88;;;14.20;56.60;;;;;;5011697;28;20052;-69
2022/05/31 05:41:37;;;;;;;2.97;1.02;;;14.20;57.70;;;;;;5001132;28;20065;-68
2022/05/31 05:44:04;;;;;;;6.13;1.65;;;14.10;59.10;;;;;;4991845;28;20049;-69
2022/05/31 05:46:31;;;;;;;5.18;0.98;;;14.00;63.00;;;;;;4993156;28;20069;-69
2022/05/31 05:48:59;;;;;;;5.40;1.13;;;13.80;65.10;;;;;;5000500;28;20081;-69
2022/05/31 05:51:31;;;;;;;3.28;0.95;;;13.60;65.90;;;;;;4985950;28;20093;-69
2022/05/31 05:53:58;;;;;;;5.45;1.63;;;13.50;66.30;;;;;;4993079;28;20109;-69
2022/05/31 05:56:26;;;;;;;4.63;0.85;;;13.40;66.40;;;;;;5001015;28;20109;-69
2022/05/31 05:58:53;;;;;;;4.72;0.85;;;13.30;66.00;;;;;;4985803;28;20034;-69
2022/05/31 06:01:27;;;;;;;4.57;1.00;;;13.20;65.70;;;;;;5000015;28;20529;-69
2022/05/31 06:03:58;;;;;;;4.95;1.35;;;13.20;66.40;;;;;;4970611;28;20033;-69
2022/05/31 06:06:25;;;;;;;1.58;1.13;;;13.10;66.60;;;;;;5010927;28;20046;-69
2022/05/31 06:09:03;;;;;;;1.10;0.80;;;13.10;67.40;;;;;;4991661;28;20069;-69
2022/05/31 06:11:45;;;;;;;1.65;0.93;;;13.10;68.80;;;;;;4981446;28;20118;-69
2022/05/31 06:14:55;;;;;;;5.38;0.90;;;12.90;70.00;;;;;;4969940;28;20046;-68
2022/05/31 06:17:24;;;;;;;1.70;0.85;;;12.80;70.80;;;;;;4931305;29;20195;-68
2022/05/31 06:19:52;;;;;;;1.98;0.82;;;12.80;71.10;;;;;;4977983;28;20044;-67
2022/05/31 06:22:19;;;;;;;0.88;0.52;;;12.70;71.00;;;;;;5009187;28;20042;-69
2022/05/31 06:24:46;;;;;;;2.40;0.73;;;12.70;70.70;;;;;;4973713;28;20030;-68
2022/05/31 06:27:14;;;;;;;3.38;0.70;;;12.60;70.30;;;;;;5008376;28;20053;-68
2022/05/31 06:29:42;;;;;;;2.28;0.65;;;12.60;70.20;;;;;;5000098;28;20500;-69
2022/05/31 06:32:09;;;;;;;0.63;0.40;;;12.60;69.50;;;;;;4982921;28;20579;-69
2022/05/31 06:34:37;;;;;;;0.30;0.30;;;12.60;69.80;;;;;;5010708;28;20491;-67
2022/05/31 06:37:09;;;;;;;1.17;0.60;;;12.60;69.90;;;;;;5010523;28;20394;-69
2022/05/31 06:39:38;;;;;;;1.52;0.63;;;12.60;69.70;;;;;;4980297;28;20061;-68
2022/05/31 06:42:05;;;;;;;1.05;0.60;;;12.60;70.80;;;;;;5007144;28;20042;-68
2022/05/31 06:44:35;;;;;;;1.30;0.70;;;12.70;70.70;;;;;;4998172;28;20026;-69
2022/05/31 06:47:02;;;;;;;1.60;0.80;;;12.60;69.80;;;;;;5003896;28;20076;-68
2022/05/31 06:49:33;;;;;;;2.80;0.82;;;12.60;69.90;;;;;;4997501;28;20346;-68
2022/05/31 06:57:35;;;;;;;0.98;0.60;;;12.50;69.50;;;;;;5002253;28;20105;-67
2022/05/31 07:00:04;;;;;;;4.43;0.60;;;12.60;69.80;;;;;;5005764;28;20042;-67
2022/05/31 07:02:32;;;;;;;3.70;1.02;;;12.50;69.30;;;;;;4994526;28;20034;-68
2022/05/31 07:04:59;;;;;;;0.95;0.70;;;12.50;69.30;;;;;;4997410;28;20034;-67
2022/05/31 07:07:26;;;;;;;0.90;0.65;;;12.50;69.80;;;;;;5009566;28;20151;-67
2022/05/31 07:09:53;;;;;;;2.85;1.30;;;12.50;69.60;;;;;;4992614;28;20038;-68
2022/05/31 07:12:20;;;;;;;3.40;2.30;;;12.40;69.60;;;;;;5004061;28;20409;-68
2022/05/31 07:14:48;;;;;;;3.35;2.28;;;12.50;69.10;;;;;;4996409;28;20037;-68
2022/05/31 07:17:15;;;;;;;10.35;5.78;;;12.50;67.50;;;;;;5005788;28;20037;-67
2022/05/31 07:19:42;;;;;;;16.10;9.32;;;12.40;66.80;;;;;;4999401;28;20030;-68
2022/05/31 07:22:09;;;;;;;15.00;7.28;;;12.50;66.50;;;;;;5009527;28;20404;-67
2022/05/31 07:24:36;;;;;;;5.22;3.35;;;12.50;67.00;;;;;;5006396;28;20514;-68
2022/05/31 07:27:04;;;;;;;2.38;1.45;;;12.50;66.00;;;;;;5003696;28;20072;-68
2022/05/31 07:29:31;;;;;;;3.17;2.53;;;12.40;65.30;;;;;;5009786;28;20042;-70
2022/05/31 07:31:58;;;;;;;2.10;1.60;;;12.40;65.80;;;;;;5007134;28;20026;-66
2022/05/31 07:34:26;;;;;;;4.90;2.28;;;12.40;65.20;;;;;;5007094;28;20692;-68
2022/05/31 07:36:53;;;;;;;2.75;1.77;;;12.40;65.50;;;;;;5009494;28;20030;-68
2022/05/31 07:39:20;;;;;;;9.23;5.35;;;12.40;64.60;;;;;;5009534;28;20054;-68
2022/05/31 07:41:49;;;;;;;15.60;7.80;;;12.40;64.80;;;;;;5007655;28;20030;-69
2022/05/31 07:44:18;;;;;;;24.60;9.57;;;12.40;64.30;;;;;;5003664;28;20074;-67
2022/05/31 07:46:45;;;;;;;15.65;7.53;;;12.40;64.80;;;;;;5007447;28;20046;-68
2022/05/31 07:49:12;;;;;;;14.20;5.90;;;12.50;64.20;;;;;;5009183;28;20397;-68
2022/05/31 07:51:39;;;;;;;5.57;2.70;;;12.40;63.80;;;;;;5009110;28;20447;-68
2022/05/31 07:54:06;;;;;;;7.80;4.47;;;12.40;63.50;;;;;;4998449;28;20492;-68
2022/05/31 07:56:34;;;;;;;4.22;2.92;;;12.40;63.50;;;;;;4986603;28;20045;-67
2022/05/31 07:59:01;;;;;;;1.65;1.25;;;12.40;63.50;;;;;;5007973;28;20461;-68
2022/05/31 08:01:28;;;;;;;1.17;1.05;;;12.50;63.80;;;;;;5001925;28;20097;-69
2022/05/31 08:03:55;;;;;;;1.10;1.00;;;12.40;62.90;;;;;;5007749;28;20161;-69
2022/05/31 08:06:24;;;;;;;1.13;0.90;;;12.50;63.60;;;;;;5000440;28;20392;-70
2022/05/31 08:08:51;;;;;;;1.55;0.90;;;12.40;64.00;;;;;;5008713;28;20125;-69
2022/05/31 08:11:30;;;;;;;1.15;0.77;;;12.40;63.70;;;;;;5008976;28;20362;-70
2022/05/31 08:13:57;;;;;;;1.58;0.57;;;12.40;64.00;;;;;;5001593;28;20121;-70
2022/05/31 08:16:25;;;;;;;0.65;0.50;;;12.40;63.00;;;;;;4999104;28;20034;-69
2022/05/31 08:18:52;;;;;;;1.17;0.80;;;12.40;63.90;;;;;;4998248;28;20489;-70
2022/05/31 08:21:27;;;;;;;0.65;0.47;;;12.40;63.80;;;;;;4988079;28;20041;-70
2022/05/31 08:23:57;;;;;;;1.20;0.77;;;12.40;64.30;;;;;;5001719;28;20046;-69
2022/05/31 08:26:24;;;;;;;2.25;1.02;;;12.30;64.40;;;;;;5003010;28;20041;-69
2022/05/31 08:28:52;;;;;;;0.80;0.60;;;12.30;64.20;;;;;;5008737;28;20033;-69
2022/05/31 08:31:23;;;;;;;1.30;0.90;;;12.30;64.20;;;;;;4997728;28;20066;-68
2022/05/31 08:33:50;;;;;;;2.47;0.90;;;12.30;64.40;;;;;;5002705;28;20440;-67
2022/05/31 08:36:17;;;;;;;1.63;1.15;;;12.30;65.30;;;;;;5028560;28;20065;-67
2022/05/31 08:38:44;;;;;;;0.77;0.77;;;12.20;64.50;;;;;;5028728;28;20026;-68
2022/05/31 08:41:31;;;;;;;2.00;0.60;;;12.30;64.30;;;;;;5022527;28;20045;-68
2022/05/31 08:44:27;;;;;;;2.45;1.08;;;12.20;64.80;;;;;;5014953;28;20030;-68
2022/05/31 08:47:01;;;;;;;2.65;0.70;;;12.20;63.60;;;;;;5025100;28;20050;-68
2022/05/31 08:52:27;;;;;;;1.38;0.90;;;12.30;63.90;;;;;;5024739;28;20534;-69
2022/05/31 10:50:47;;;;;;;4.97;0.73;;;12.30;60.90;;;;;;5000082;28;20428;-70
2022/05/31 10:53:25;;;;;;;2.13;0.93;;;12.30;61.00;;;;;;5000474;28;20061;-68
2022/05/31 10:55:59;;;;;;;1.85;0.90;;;12.30;60.70;;;;;;5000418;28;20035;-69
2022/05/31 10:58:42;;;;;;;1.55;0.80;;;12.30;60.60;;;;;;5010525;28;20034;-68
2022/05/31 11:01:45;;;;;;;2.13;0.75;;;12.30;60.90;;;;;;5032346;28;20044;-69
2022/05/31 11:04:38;;;;;;;2.40;1.08;;;12.30;61.40;;;;;;5009295;28;20503;-68
2022/05/31 11:07:28;;;;;;;4.95;1.42;;;12.30;61.80;;;;;;5011335;28;20503;-68
2022/05/31 11:13:38;;;;;;;2.05;0.73;;;12.30;61.20;;;;;;4991259;28;20041;-69
2022/05/31 11:16:32;;;;;;;2.78;0.70;;;12.20;59.50;;;;;;4988016;28;20030;-68
2022/05/31 11:19:14;;;;;;;2.38;0.70;;;12.30;59.70;;;;;;4998176;28;20373;-68
2022/05/31 11:22:05;;;;;;;1.00;0.88;;;12.20;59.50;;;;;;5015569;28;20127;-69
2022/05/31 11:25:07;;;;;;;4.07;1.05;;;12.20;59.10;;;;;;5004510;28;20025;-68
2022/05/31 11:27:56;;;;;;;2.97;0.55;;;12.20;59.10;;;;;;5018626;28;20044;-68
2022/05/31 11:30:26;;;;;;;2.05;0.70;;;12.20;58.10;;;;;;5017156;28;20033;-69
2022/05/31 11:33:29;;;;;;;1.87;0.70;;;12.20;58.40;;;;;;5032184;28;20108;-68
2022/05/31 11:36:08;;;;;;;1.35;0.55;;;12.30;59.10;;;;;;5030287;28;20025;-69
2022/05/31 11:39:12;;;;;;;2.30;0.65;;;12.20;58.30;;;;;;4999735;28;20072;-69
2022/05/31 11:42:04;;;;;;;0.75;0.60;;;12.20;57.90;;;;;;5030361;28;20025;-68
2022/05/31 11:45:03;;;;;;;1.60;0.70;;;12.20;57.60;;;;;;5000781;28;20045;-69
2022/05/31 11:47:55;;;;;;;1.95;0.60;;;12.20;57.60;;;;;;5012109;28;20385;-68
2022/05/31 11:50:29;;;;;;;2.67;0.93;;;12.20;57.40;;;;;;5016529;28;20053;-68
2022/05/31 11:53:18;;;;;;;2.25;1.08;;;12.20;57.70;;;;;;5031828;28;20120;-68
2022/05/31 11:55:57;;;;;;;1.38;0.73;;;12.20;58.10;;;;;;4991826;28;20032;-68
2022/05/31 11:58:43;;;;;;;1.67;0.80;;;12.20;57.30;;;;;;4990898;28;20030;-68
2022/05/31 12:01:16;;;;;;;1.92;0.70;;;12.20;57.40;;;;;;5014167;28;20072;-68
2022/05/31 12:03:46;;;;;;;2.65;0.80;;;12.20;56.80;;;;;;5031499;28;20038;-67
2022/05/31 12:06:15;;;;;;;2.03;0.68;;;12.20;56.70;;;;;;5026951;28;20084;-68
2022/05/31 12:08:47;;;;;;;1.50;0.60;;;12.20;57.20;;;;;;5009090;28;20042;-67
2022/05/31 12:11:37;;;;;;;3.13;0.57;;;12.20;56.80;;;;;;4997867;28;20040;-67
2022/05/31 12:14:04;;;;;;;2.85;0.80;;;12.20;57.80;;;;;;5006501;28;20151;-67
2022/05/31 12:16:31;;;;;;;1.15;0.63;;;12.20;57.00;;;;;;5013342;28;20416;-68
2022/05/31 12:19:11;;;;;;;2.33;0.80;;;12.20;57.10;;;;;;5025051;28;20388;-68
2022/05/31 12:21:48;;;;;;;3.63;0.70;;;12.10;56.80;;;;;;5015516;28;20050;-69
2022/05/31 12:24:15;;;;;;;3.28;0.70;;;12.10;56.50;;;;;;5014916;28;20037;-69
2022/05/31 12:27:20;;;;;;;1.65;0.70;;;12.10;57.50;;;;;;5031430;28;20042;-69
2022/05/31 12:30:18;;;;;;;1.42;0.60;;;12.10;57.10;;;;;;5020216;28;20025;-69
2022/05/31 12:32:47;;;;;;;1.13;0.45;;;12.10;56.90;;;;;;5013718;28;20038;-68
2022/05/31 12:35:33;;;;;;;3.17;1.00;;;12.10;56.50;;;;;;5013220;28;20034;-69
2022/05/31 12:38:07;;;;;;;1.25;0.63;;;12.10;57.70;;;;;;5026187;28;20036;-69
2022/05/31 12:40:34;;;;;;;1.10;0.70;;;12.10;56.50;;;;;;5003400;28;20038;-69
2022/05/31 12:43:05;;;;;;;2.25;0.90;;;12.10;57.10;;;;;;5031049;28;20124;-68
2022/05/31 12:45:36;;;;;;;3.72;0.88;;;12.10;57.40;;;;;;5013714;28;20092;-69
2022/05/31 12:48:17;;;;;;;1.52;0.70;;;12.10;56.20;;;;;;5031282;28;20451;-68
2022/05/31 12:50:54;;;;;;;1.27;0.88;;;12.00;56.90;;;;;;5039606;28;20427;-68
2022/05/31 12:53:23;;;;;;;1.95;1.13;;;12.10;55.50;;;;;;5034605;28;20037;-69
2022/05/31 12:55:59;;;;;;;1.85;0.60;;;12.00;55.90;;;;;;5014348;28;20017;-69
2022/05/31 13:01:19;;;;;;;1.73;0.80;;;12.00;55.10;;;;;;5051242;28;20031;-69
2022/05/31 13:03:49;;;;;;;0.68;0.50;;;12.00;54.80;;;;;;5049802;28;20037;-69
2022/05/31 13:06:53;;;;;;;3.55;0.43;;;12.00;54.50;;;;;;5051032;28;20091;-69
2022/05/31 13:09:26;;;;;;;0.70;0.47;;;12.00;55.10;;;;;;5032928;28;20037;-69
2022/05/31 13:20:46;;;;;;;1.13;0.52;;;12.00;55.20;;;;;;5041271;28;20561;-70
2022/05/31 13:23:29;;;;;;;2.95;0.50;;;12.00;55.10;;;;;;5050912;28;20053;-69
2022/05/31 13:26:01;;;;;;;1.85;0.60;;;11.90;54.90;;;;;;5030954;28;20029;-69
2022/05/31 13:28:34;;;;;;;2.45;0.57;;;11.90;54.50;;;;;;5036738;28;20079;-69
2022/05/31 13:31:14;;;;;;;1.25;0.20;;;11.90;54.80;;;;;;5053001;28;20068;-69
2022/05/31 13:33:42;;;;;;;3.55;0.65;;;11.90;55.50;;;;;;5054739;28;20065;-69
2022/05/31 13:36:17;;;;;;;1.70;0.55;;;11.90;56.00;;;;;;5029443;28;20044;-69
2022/05/31 13:38:46;;;;;;;1.48;0.57;;;11.90;56.20;;;;;;5012744;28;20096;-69
2022/05/31 13:41:15;;;;;;;1.67;0.50;;;11.90;56.40;;;;;;5031418;28;20035;-69
2022/05/31 13:43:53;;;;;;;1.85;0.43;;;11.90;56.10;;;;;;5015601;28;20115;-69
2022/05/31 13:46:29;;;;;;;2.55;0.90;;;11.90;55.70;;;;;;5036634;28;20037;-69
2022/05/31 13:49:03;;;;;;;1.50;0.55;;;11.80;56.60;;;;;;5052323;28;20067;-69
2022/05/31 13:51:31;;;;;;;3.47;0.60;;;11.90;56.70;;;;;;5019825;28;20083;-70
2022/05/31 13:54:15;;;;;;;1.33;0.43;;;11.90;56.70;;;;;;5053876;28;20032;-69
2022/05/31 13:56:45;;;;;;;1.33;0.45;;;11.80;56.30;;;;;;5016850;28;20052;-69
2022/05/31 13:59:12;;;;;;;1.40;0.50;;;11.80;56.90;;;;;;5033192;28;20412;-69
2022/05/31 14:01:41;;;;;;;1.17;0.50;;;11.80;57.00;;;;;;5054102;28;20040;-69
2022/05/31 14:04:13;;;;;;;0.65;0.43;;;11.70;56.80;;;;;;5020269;28;20049;-69
2022/05/31 14:06:44;;;;;;;2.45;0.55;;;11.80;55.90;;;;;;5021504;28;20035;-69
2022/05/31 14:09:29;;;;;;;1.25;0.52;;;11.70;56.20;;;;;;5015196;28;20400;-69
2022/05/31 14:12:02;;;;;;;0.55;0.47;;;11.70;56.10;;;;;;5037564;28;20035;-69
2022/05/31 14:14:34;;;;;;;4.40;0.80;;;11.70;56.20;;;;;;5020770;28;20029;-69
2022/05/31 14:17:02;;;;;;;3.42;0.82;;;11.70;55.70;;;;;;5030041;28;20467;-69
2022/05/31 14:19:37;;;;;;;1.50;0.68;;;11.70;55.60;;;;;;5047538;28;20144;-69
2022/05/31 14:22:31;;;;;;;1.83;0.63;;;11.70;56.10;;;;;;5052918;28;20095;-69
2022/05/31 14:25:01;;;;;;;3.00;1.08;;;11.70;56.70;;;;;;5027822;28;20064;-69
2022/05/31 14:27:28;;;;;;;2.47;0.55;;;11.70;58.30;;;;;;5019070;28;20048;-69
2022/05/31 14:30:06;;;;;;;1.20;0.43;;;11.70;57.70;;;;;;5028129;28;20025;-69
2022/05/31 14:32:35;;;;;;;2.15;0.77;;;11.70;57.50;;;;;;5053565;28;20043;-69
2022/05/31 14:35:13;;;;;;;3.03;0.70;;;11.70;57.70;;;;;;5034208;28;20025;-69
2022/05/31 14:37:45;;;;;;;2.92;0.77;;;11.70;57.10;;;;;;5035948;28;20036;-69
2022/05/31 14:40:23;;;;;;;1.65;0.82;;;11.70;57.80;;;;;;5007047;28;20237;-69
2022/05/31 14:43:13;;;;;;;1.33;0.70;;;11.60;57.40;;;;;;5035511;28;20482;-70
2022/05/31 14:45:50;;;;;;;1.63;0.52;;;11.60;57.90;;;;;;5053035;28;20519;-69
2022/05/31 14:48:39;;;;;;;1.83;0.65;;;11.60;57.60;;;;;;5033500;28;20532;-69
2022/05/31 14:51:23;;;;;;;3.38;0.77;;;11.60;58.30;;;;;;5045179;28;20105;-69
2022/05/31 14:53:53;;;;;;;1.90;0.75;;;11.60;58.30;;;;;;5036900;28;20136;-70
2022/05/31 14:56:31;;;;;;;2.70;0.60;;;11.60;57.70;;;;;;5035486;28;20071;-69
2022/05/31 14:59:03;;;;;;;1.50;0.52;;;11.60;57.30;;;;;;5035302;28;20032;-69
2022/05/31 15:01:34;;;;;;;1.00;0.43;;;11.50;57.50;;;;;;5035083;28;20045;-69
2022/05/31 15:04:16;;;;;;;3.53;0.60;;;11.60;57.40;;;;;;5035062;28;20029;-69
2022/05/31 15:06:43;;;;;;;3.03;0.65;;;11.60;57.60;;;;;;5035027;28;20125;-69
2022/05/31 15:09:25;;;;;;;3.13;0.88;;;11.60;57.50;;;;;;5032263;28;20041;-68
2022/05/31 15:20:16;;;;;;;1.42;0.55;;;11.50;57.60;;;;;;5045993;28;20079;-69
2022/05/31 15:22:43;;;;;;;3.95;0.38;;;11.50;57.60;;;;;;5039700;28;20029;-69
2022/05/31 15:25:22;;;;;;;2.67;0.52;;;11.50;56.20;;;;;;5052251;28;20033;-69
2022/05/31 15:27:50;;;;;;;1.45;0.40;;;11.40;55.80;;;;;;5018903;28;20037;-69
2022/05/31 15:30:17;;;;;;;1.25;0.70;;;11.50;56.60;;;;;;5017090;28;20048;-69
2022/05/31 15:32:45;;;;;;;2.15;0.80;;;11.40;56.00;;;;;;5019421;28;20037;-69
2022/05/31 15:35:16;;;;;;;3.20;0.77;;;11.40;56.50;;;;;;5034290;28;20043;-69
2022/05/31 15:37:44;;;;;;;0.98;0.60;;;11.40;56.40;;;;;;5034936;28;20137;-69
2022/05/31 15:40:15;;;;;;;2.72;0.80;;;11.40;56.70;;;;;;5007178;28;20036;-69
2022/05/31 15:42:42;;;;;;;1.65;0.80;;;11.40;56.40;;;;;;5005041;28;20395;-69
2022/05/31 15:45:12;;;;;;;1.52;0.88;;;11.40;58.10;;;;;;5052099;28;20029;-69
2022/05/31 15:47:39;;;;;;;2.85;0.60;;;11.30;56.30;;;;;;5034047;28;20068;-69
2022/05/31 15:50:07;;;;;;;0.43;0.30;;;11.30;56.40;;;;;;5045591;28;20103;-69
2022/05/31 15:52:40;;;;;;;1.52;0.65;;;11.30;56.30;;;;;;5040849;28;20091;-69
2022/05/31 15:55:08;;;;;;;1.45;0.77;;;11.30;56.30;;;;;;5017791;28;20034;-69
2022/05/31 15:57:37;;;;;;;2.47;0.60;;;11.30;56.10;;;;;;5030188;28;20033;-69
2022/05/31 16:00:06;;;;;;;4.88;0.68;;;11.30;57.00;;;;;;5028827;28;20041;-69
2022/05/31 16:02:33;;;;;;;2.67;0.77;;;11.30;56.20;;;;;;5017805;28;20037;-69
2022/05/31 16:05:00;;;;;;;2.40;0.85;;;11.30;56.00;;;;;;5051440;28;20033;-69
2022/05/31 16:07:31;;;;;;;0.90;0.60;;;11.30;57.00;;;;;;5051406;28;20435;-69
2022/05/31 16:09:58;;;;;;;2.53;0.55;;;11.30;57.60;;;;;;5032053;28;20024;-69
2022/05/31 16:12:26;;;;;;;0.80;0.55;;;11.20;57.00;;;;;;5033628;28;20021;-69
2022/05/31 16:14:54;;;;;;;1.20;0.50;;;11.20;57.10;;;;;;5051718;28;20033;-69
2022/05/31 16:17:22;;;;;;;2.55;0.80;;;11.20;57.10;;;;;;5033697;28;20029;-69
2022/05/31 16:19:49;;;;;;;1.63;0.70;;;11.20;56.60;;;;;;5046579;28;20033;-69
2022/05/31 16:22:18;;;;;;;1.40;0.57;;;11.20;57.20;;;;;;5044752;28;20480;-69
2022/05/31 16:24:46;;;;;;;1.23;0.60;;;11.20;57.10;;;;;;5025845;28;20397;-69
2022/05/31 16:27:13;;;;;;;2.58;0.60;;;11.10;57.10;;;;;;5028954;28;20033;-69